createdAt,value
2018-11-03T05:36:41.177Z,9.23
2018-11-03T05:40:59.728Z,9.51
2018-11-03T05:43:28.433Z,9.69
2018-11-03T05:45:57.193Z,9.84
2018-11-03T05:50:22.321Z,9.95
2018-11-03T05:52:51.045Z,10.09
2018-11-03T05:55:19.730Z,10.15
2018-11-03T05:57:48.418Z,10.24
2018-11-03T06:00:17.197Z,10.35
2018-11-03T06:02:45.933Z,10.37
2018-11-03T06:05:14.716Z,10.46
2018-11-03T06:07:43.428Z,10.48
2018-11-03T06:10:12.212Z,10.62
2018-11-03T06:12:40.932Z,10.60
2018-11-03T06:15:09.693Z,10.76
2018-11-03T06:17:38.469Z,10.72
2018-11-03T06:20:07.653Z,10.85
2018-11-03T06:22:36.426Z,10.90
2018-11-03T06:25:05.699Z,10.93
2018-11-03T06:27:34.384Z,10.95
2018-11-03T06:30:06.753Z,10.92
2018-11-03T06:32:35.507Z,10.90
2018-11-03T06:35:04.411Z,11.03
2018-11-03T06:37:33.137Z,10.95
2018-11-03T06:40:01.863Z,10.97
2018-11-03T06:42:30.627Z,11.06
2018-11-03T06:44:59.793Z,11.17
2018-11-03T06:47:28.571Z,11.20
2018-11-03T06:49:57.275Z,11.30
2018-11-03T06:52:26.037Z,11.36
2018-11-03T06:54:54.653Z,11.33
2018-11-03T06:57:23.436Z,11.45
2018-11-03T07:00:57.280Z,11.51
2018-11-03T07:03:26.564Z,11.56
2018-11-03T07:05:55.358Z,11.57
2018-11-03T07:08:24.315Z,11.60
2018-11-03T07:10:53.002Z,11.74
2018-11-03T07:13:21.854Z,11.79
2018-11-03T07:15:50.463Z,11.87
2018-11-03T07:18:19.213Z,11.93
2018-11-03T07:20:48.035Z,11.98
2018-11-03T07:23:16.692Z,12.04
2018-11-03T07:25:45.946Z,12.08
2018-11-03T07:28:14.677Z,12.12
2018-11-03T07:30:43.515Z,12.21
2018-11-03T07:33:12.281Z,12.37
2018-11-03T07:35:41.029Z,12.39
2018-11-03T07:38:09.785Z,12.40
2018-11-03T07:40:38.496Z,12.48
2018-11-03T07:43:07.264Z,12.65
2018-11-03T07:45:35.973Z,12.78
2018-11-03T07:48:05.052Z,12.87
2018-11-03T07:50:33.757Z,12.93
2018-11-03T07:53:02.474Z,12.94
2018-11-03T07:55:31.142Z,12.91
2018-11-03T07:57:59.871Z,13.07
2018-11-03T08:03:03.248Z,13.37
2018-11-03T08:05:31.916Z,13.53
2018-11-03T08:08:00.656Z,13.67
2018-11-03T08:10:29.454Z,13.81
2018-11-03T08:12:58.193Z,13.86
2018-11-03T08:15:26.997Z,13.87
2018-11-03T08:17:55.664Z,13.91
2018-11-03T08:20:24.395Z,14.05
2018-11-03T08:22:53.125Z,14.27
2018-11-03T08:25:21.836Z,14.40
2018-11-03T08:27:50.690Z,14.42
2018-11-03T08:30:19.475Z,14.58
2018-11-03T08:32:48.245Z,14.71
2018-11-03T08:35:16.944Z,14.83
2018-11-03T08:37:45.691Z,14.83
2018-11-03T08:40:14.426Z,14.94
2018-11-03T08:42:43.190Z,15.17
2018-11-03T08:45:12.315Z,15.34
2018-11-03T08:47:41.066Z,15.42
2018-11-03T08:50:11.265Z,15.58
2018-11-03T08:52:40.125Z,15.79
2018-11-03T08:55:10.182Z,15.98
2018-11-03T08:57:38.813Z,16.17
2018-11-03T09:00:11.293Z,16.38
2018-11-03T09:02:40.789Z,16.54
2018-11-03T09:05:10.024Z,16.64
2018-11-03T09:07:39.203Z,16.91
2018-11-03T09:10:10.145Z,17.16
2018-11-03T09:12:39.140Z,17.59
2018-11-03T09:15:10.285Z,18.09
2018-11-03T09:17:39.885Z,18.70
2018-11-03T09:20:09.667Z,19.22
2018-11-03T09:22:39.024Z,19.62
2018-11-03T09:25:10.000Z,20.10
2018-11-03T09:27:39.340Z,20.42
2018-11-03T09:30:10.647Z,20.68
2018-11-03T09:32:39.448Z,20.87
2018-11-03T09:35:08.920Z,20.99
2018-11-03T09:37:37.587Z,20.81
2018-11-03T09:40:08.178Z,21.12
2018-11-03T09:42:36.913Z,21.09
2018-11-03T09:45:06.173Z,21.48
2018-11-03T09:47:34.852Z,21.96
2018-11-03T09:50:03.730Z,22.18
2018-11-03T09:52:32.700Z,22.27
2018-11-03T09:55:01.425Z,21.97
2018-11-03T09:57:30.225Z,22.24
2018-11-03T09:59:58.911Z,22.24
2018-11-03T10:02:27.646Z,22.26
2018-11-03T10:04:56.333Z,22.11
2018-11-03T10:07:25.107Z,22.15
2018-11-03T10:09:53.909Z,22.17
2018-11-03T10:12:23.457Z,22.31
2018-11-03T10:14:52.190Z,22.51
2018-11-03T10:17:20.922Z,22.49
2018-11-03T10:19:49.642Z,22.59
2018-11-03T10:22:18.683Z,22.92
2018-11-03T10:24:47.533Z,23.07
2018-11-03T10:27:16.362Z,23.40
2018-11-03T10:29:45.118Z,23.38
2018-11-03T10:32:14.087Z,23.62
2018-11-03T10:34:51.234Z,23.52
2018-11-03T10:37:20.019Z,23.68
2018-11-03T10:39:48.688Z,23.58
2018-11-03T10:42:17.416Z,23.42
2018-11-03T10:44:46.073Z,23.50
2018-11-03T10:47:14.758Z,23.48
2018-11-03T10:49:43.818Z,23.53
2018-11-03T10:52:13.486Z,23.82
2018-11-03T10:54:42.269Z,24.36
2018-11-03T10:57:11.463Z,25.00
2018-11-03T10:59:40.204Z,25.28
2018-11-03T11:02:14.012Z,25.53
2018-11-03T11:04:47.927Z,25.16
2018-11-03T11:07:21.779Z,26.09
2018-11-03T11:09:55.665Z,25.79
2018-11-03T11:12:29.625Z,26.03
2018-11-03T11:14:58.406Z,26.28
2018-11-03T11:17:27.105Z,26.40
2018-11-03T11:19:55.766Z,26.55
2018-11-03T11:22:24.493Z,26.49
2018-11-03T11:24:53.322Z,26.09
2018-11-03T11:27:22.014Z,25.95
2018-11-03T11:29:50.768Z,26.00
2018-11-03T11:32:19.540Z,25.97
2018-11-03T11:34:51.247Z,26.36
2018-11-03T11:37:20.020Z,26.67
2018-11-03T11:39:48.669Z,27.35
2018-11-03T11:42:17.531Z,27.81
2018-11-03T11:44:46.165Z,27.82
2018-11-03T11:47:14.809Z,27.51
2018-11-03T11:49:43.484Z,28.21
2018-11-03T11:52:12.197Z,28.25
2018-11-03T11:54:41.056Z,27.74
2018-11-03T11:57:09.728Z,28.12
2018-11-03T11:59:38.497Z,27.65
2018-11-03T12:02:07.312Z,27.30
2018-11-03T12:04:36.044Z,26.85
2018-11-03T12:07:04.770Z,26.85
2018-11-03T12:09:33.510Z,26.90
2018-11-03T12:12:02.218Z,27.32
2018-11-03T12:14:30.912Z,27.45
2018-11-03T12:16:59.581Z,27.44
2018-11-03T12:19:28.264Z,27.59
2018-11-03T12:21:56.924Z,27.70
2018-11-03T12:24:25.641Z,27.87
2018-11-03T12:26:54.298Z,27.86
2018-11-03T12:29:22.978Z,28.08
2018-11-03T12:31:51.662Z,27.89
2018-11-03T12:34:20.408Z,27.71
2018-11-03T12:36:49.053Z,27.19
2018-11-03T12:39:17.841Z,26.82
2018-11-03T12:41:46.605Z,26.90
2018-11-03T12:44:15.306Z,27.25
2018-11-03T12:46:44.082Z,27.57
2018-11-03T12:49:12.747Z,27.67
2018-11-03T12:51:41.560Z,27.72
2018-11-03T12:54:10.262Z,27.51
2018-11-03T12:56:38.949Z,27.56
2018-11-03T12:59:07.747Z,27.61
2018-11-03T13:01:36.368Z,27.64
2018-11-03T13:04:05.208Z,27.84
2018-11-03T13:06:33.916Z,27.60
2018-11-03T13:09:02.764Z,27.37
2018-11-03T13:11:31.418Z,27.16
2018-11-03T13:14:00.152Z,27.31
2018-11-03T13:16:28.850Z,27.26
2018-11-03T13:18:57.537Z,26.98
2018-11-03T13:21:26.319Z,26.79
2018-11-03T13:23:55.016Z,26.76
2018-11-03T13:26:23.682Z,26.54
2018-11-03T13:28:52.357Z,26.27
2018-11-03T13:31:21.049Z,26.22
2018-11-03T13:33:49.781Z,26.05
2018-11-03T13:36:18.558Z,25.92
2018-11-03T13:38:47.829Z,25.72
2018-11-03T13:41:16.524Z,25.68
2018-11-03T13:43:45.250Z,25.64
2018-11-03T13:46:14.038Z,25.46
2018-11-03T13:48:42.669Z,25.08
2018-11-03T13:51:11.349Z,25.05
2018-11-03T13:53:39.998Z,24.79
2018-11-03T13:56:08.761Z,24.79
2018-11-03T13:58:37.455Z,24.71
2018-11-03T14:01:06.510Z,24.47
2018-11-03T14:03:35.836Z,24.30
2018-11-03T14:06:04.589Z,24.10
2018-11-03T14:08:33.966Z,23.84
2018-11-03T14:11:02.638Z,23.57
2018-11-03T14:13:31.278Z,23.44
2018-11-03T14:15:59.952Z,23.37
2018-11-03T14:18:28.641Z,23.27
2018-11-03T14:20:57.327Z,23.21
2018-11-03T14:23:26.113Z,23.04
2018-11-03T14:25:54.758Z,22.93
2018-11-03T14:28:23.704Z,22.74
2018-11-03T14:30:52.406Z,22.61
